Bandar Abbas International Airport
OIKB : now visible

Airfield :











YOU CAN JOIN US ON...

 
LOGIN :

Register | Disclaimer

   EN    FR    IT 

 









Legend :    VFR   Marginal VFR   IFR   Intensive IFR   Very Intensive IFR
Visi :
Ceiling :
>= 8 km
>= 3000ft
5 to 8 km
1000 to 3000 ft
1500m to 5 km
500 to 1000 ft
800 to 1500m
200 to 500 ft
< 800m
< 200 ft
Symbols :   Thunderstorms  Fog  Heavy snow  Heavy precipitations  Wind > 20 kt






- Airport Elevation : 22 ft
- IATA code : BND


OIKB - Bandar Abbas International

CURRENT METAR :
  • 210430Z 03008KT CAVOK 28/M04 Q1013 A2992

EXPIRED METARs :
  • 210400Z 01004KT CAVOK 25/M03 Q1012 A2991 NOSIG
  • 210330Z 36008KT CAVOK 23/M04 Q1012 A2989
  • 210300Z 35006KT CAVOK 19/M02 Q1011 A2988 NOSIG
  • 210230Z 36004KT CAVOK 17/M00 Q1011 A2986
  • 210200Z 36004KT CAVOK 17/M00 Q1011 A2986

TAF TAF OIKB
Valid from the 21 at 00:00 until the 22 at 06:00 UTC


202300Z 2100/2206 34008KT 8000 NSC
BECMG 2105/2107 20008KT
TEMPO 2109/2115 26016KT
BECMG 2117/2119 03008KT
OIIX FIR / Asia



MET'MAP, your aeronautical weather chart ! - Copyright ORBIFLY December 2007 - Disclaimer

ORBIFLY MET'MAP TEAM :

Programming & Development : Alexandra Zaïnal
Concept & original design : Baudouin d'Aumeries
Assistance for programming : Marc-Olivier Méhu
Technical & hardware support : Manuel Goepfert

Contact : metmap@orbifly.com




SOURCES & CREDITS :

   NOAA       Earth
Advisory